Time;durP1;ratioP1;P1;durP2;ratioP2;P2;SDS_P1;SDS_P2;PMS_P1;PMS_P2;Temp;Humidity;BMP_temperature;BMP_pressure;BME280_temperature;BME280_humidity;BME280_pressure;Samples;Min_cycle;Max_cycle;Signal;HPM_P1;HPM_P2
2021/07/04 07:05:19;;;;;;;8.43;6.53;;;588.80;2432.00;;;;;;5898932;23;19934;-85
2021/07/04 07:11:36;;;;;;;9.38;7.53;;;589.10;2432.00;;;;;;4826035;29;20402;-84
2021/07/04 07:38:18;;;;;;;8.00;6.90;;;614.90;2432.00;;;;;;4733375;30;20033;-86
2021/07/04 07:44:37;;;;;;;7.40;6.15;;;614.90;2432.00;;;;;;4769105;30;20028;-86
2021/07/04 07:50:35;;;;;;;9.15;6.53;;;640.00;2406.40;;;;;;4826109;29;20069;-85
2021/07/04 07:53:23;;;;;;;9.35;6.25;;;640.20;2406.40;;;;;;4810378;29;20027;-85
2021/07/04 07:55:58;;;;;;;11.23;6.55;;;640.20;2380.80;;;;;;4811863;29;20033;-87
2021/07/04 07:58:30;;;;;;;9.15;5.85;;;640.50;2355.20;;;;;;4810808;29;20441;-86
2021/07/04 08:01:00;;;;;;;6.38;5.13;;;640.80;2329.60;;;;;;4814222;29;20027;-85
2021/07/04 08:03:26;;;;;;;6.45;5.50;;;640.70;2278.40;;;;;;4811357;29;20042;-85
2021/07/04 08:05:52;;;;;;;7.55;5.80;;;640.70;2304.00;;;;;;4818365;29;20049;-86
2021/07/04 08:08:23;;;;;;;16.40;6.70;;;640.90;2278.40;;;;;;4813011;29;20026;-87
2021/07/04 08:11:43;;;;;;;;;;;;;;;;;;;;;
2021/07/04 08:24:18;;;;;;;6.28;4.72;;;666.10;2176.00;;;;;;4816771;29;20170;-86
2021/07/04 08:26:54;;;;;;;7.45;4.38;;;691.50;2176.00;;;;;;4812749;29;20022;-88
2021/07/04 08:29:35;;;;;;;9.57;5.10;;;666.40;2150.40;;;;;;4812147;29;20035;-88
2021/07/04 08:32:39;;;;;;;6.55;4.22;;;666.50;2124.80;;;;;;4812373;29;20086;-87
2021/07/04 08:35:09;;;;;;;8.88;5.10;;;666.50;2124.80;;;;;;4809404;29;20073;-86
2021/07/04 08:37:43;;;;;;;5.18;4.30;;;691.40;2099.20;;;;;;4812233;29;20034;-86
2021/07/04 08:40:13;;;;;;;7.25;5.63;;;691.40;2124.80;;;;;;4812383;29;20026;-86
2021/07/04 08:42:39;;;;;;;6.30;4.70;;;691.90;2124.80;;;;;;4811999;29;20030;-87
2021/07/04 08:45:18;;;;;;;7.47;5.03;;;691.90;2073.60;;;;;;4812132;29;20033;-89
2021/07/04 08:47:47;;;;;;;7.65;5.38;;;716.80;2099.20;;;;;;4812981;29;20053;-87
2021/07/04 08:50:14;;;;;;;8.00;5.13;;;717.00;2048.00;;;;;;4812012;29;20026;-87
2021/07/04 08:52:41;;;;;;;7.60;4.28;;;717.30;2022.40;;;;;;4811849;29;20034;-86
2021/07/04 08:55:18;;;;;;;6.40;3.90;;;717.30;1971.20;;;;;;4811645;29;20022;-86
2021/07/04 08:57:44;;;;;;;5.63;3.80;;;717.50;1945.60;;;;;;4811406;29;20023;-84
2021/07/04 09:00:29;;;;;;;5.00;3.90;;;716.90;1920.00;;;;;;4811696;29;20394;-83
2021/07/04 09:03:15;;;;;;;6.20;3.83;;;717.50;1894.40;;;;;;4811486;29;20025;-85
2021/07/04 09:06:30;;;;;;;5.40;3.83;;;717.70;1843.20;;;;;;4774611;29;20495;-85
2021/07/04 09:32:27;;;;;;;4.75;3.80;;;743.00;1766.40;;;;;;4779104;29;20042;-85
2021/07/04 09:35:12;;;;;;;7.25;3.92;;;742.80;1740.80;;;;;;4825754;29;20088;-86
2021/07/04 09:37:48;;;;;;;6.10;4.70;;;743.00;1740.80;;;;;;4844402;29;20055;-85
2021/07/04 09:47:12;;;;;;;6.60;4.82;;;742.80;1766.40;;;;;;4863657;29;20097;-84
2021/07/04 09:49:39;;;;;;;7.15;3.80;;;743.00;1715.20;;;;;;4847795;29;20021;-85
2021/07/04 09:52:22;;;;;;;8.27;3.22;;;742.60;1689.60;;;;;;4847262;29;20029;-87
2021/07/04 09:54:58;;;;;;;6.75;2.97;;;742.80;1715.20;;;;;;4846834;29;20094;-89
2021/07/04 10:06:01;;;;;;;7.45;3.83;;;768.20;1638.40;;;;;;5093792;23;20406;-86
2021/07/04 10:08:38;;;;;;;6.95;4.60;;;743.00;1664.00;;;;;;4844954;29;20030;-89
2021/07/04 10:11:17;;;;;;;7.85;3.92;;;743.30;1638.40;;;;;;4828657;29;20122;-84
2021/07/04 10:35:13;;;;;;;4.03;3.22;;;794.00;1612.80;;;;;;5016320;23;20068;-83
2021/07/04 10:37:41;;;;;;;5.00;3.42;;;794.00;1536.00;;;;;;4828107;29;20025;-85
2021/07/04 10:40:21;;;;;;;5.88;3.30;;;794.20;1510.40;;;;;;4828055;29;20078;-85
2021/07/04 10:42:47;;;;;;;5.53;3.88;;;793.90;1484.80;;;;;;4827838;29;20034;-85
2021/07/04 10:45:54;;;;;;;9.35;3.65;;;768.80;1484.80;;;;;;4828148;29;20467;-85
2021/07/04 10:49:18;;;;;;;6.28;3.75;;;768.70;1484.80;;;;;;4823945;29;20055;-84
2021/07/04 10:56:01;;;;;;;;;;;;;;;;;;;;;
2021/07/04 10:59:00;;;;;;;5.65;2.50;;;768.10;1433.60;;;;;;4780531;29;20034;-84
2021/07/04 11:02:26;;;;;;;6.78;3.00;;;768.10;1382.40;;;;;;4821561;29;20037;-85
2021/07/04 11:05:18;;;;;;;5.43;2.55;;;768.40;1382.40;;;;;;4827651;29;20040;-86
2021/07/04 11:12:26;;;;;;;3.92;2.70;;;768.60;1408.00;;;;;;4843859;29;20113;-86
2021/07/04 11:18:46;;;;;;;4.60;3.38;;;768.70;1356.80;;;;;;4682323;30;20443;-85
2021/07/04 11:35:16;;;;;;;4.47;2.80;;;819.80;1331.20;;;;;;4680365;30;20153;-82
2021/07/04 11:38:18;;;;;;;6.43;4.40;;;820.00;1356.80;;;;;;4683999;30;20420;-84
2021/07/04 11:41:08;;;;;;;;;;;820.10;1331.20;;;;;;4684228;30;20077;-85
2021/07/04 11:55:04;;;;;;;3.40;2.53;;;793.80;1382.40;;;;;;5028216;23;20374;-84
2021/07/04 15:48:56;;;;;;;4.47;3.10;;;794.00;1356.80;;;;;;5315301;24;20506;-81
2021/07/04 15:51:36;;;;;;;4.68;3.22;;;793.90;1331.20;;;;;;4826893;29;20056;-84
2021/07/04 15:54:11;;;;;;;7.45;4.72;;;793.70;1356.80;;;;;;4826555;29;20026;-82
2021/07/04 15:56:37;;;;;;;6.82;3.35;;;793.70;1356.80;;;;;;4826687;29;20101;-84
2021/07/04 15:59:05;;;;;;;6.57;4.28;;;793.70;1382.40;;;;;;4826330;29;20086;-81
2021/07/04 16:01:31;;;;;;;5.15;3.35;;;768.90;1356.80;;;;;;4826560;29;20037;-83
2021/07/04 16:03:57;;;;;;;4.65;3.38;;;768.60;1356.80;;;;;;4825926;29;20038;-83
2021/07/04 16:06:28;;;;;;;5.15;3.67;;;768.10;1382.40;;;;;;4826871;29;20030;-84
2021/07/04 16:08:56;;;;;;;6.17;4.80;;;768.10;1356.80;;;;;;4826565;29;20018;-84
2021/07/04 16:11:27;;;;;;;5.05;3.95;;;768.70;1382.40;;;;;;4826441;29;20754;-84
2021/07/04 16:13:54;;;;;;;6.25;3.30;;;768.60;1408.00;;;;;;4829090;29;20038;-83
2021/07/04 16:16:20;;;;;;;5.07;3.50;;;768.60;1356.80;;;;;;4835376;29;20359;-78
2021/07/04 16:18:46;;;;;;;4.20;3.22;;;768.40;1382.40;;;;;;4831863;29;20029;-86
2021/07/04 16:21:12;;;;;;;4.45;3.35;;;768.40;1408.00;;;;;;4835005;29;20030;-82
2021/07/04 16:23:39;;;;;;;4.50;3.10;;;768.40;1408.00;;;;;;4831100;29;20027;-82
2021/07/04 16:26:05;;;;;;;7.85;3.40;;;768.20;1408.00;;;;;;4827854;29;20050;-83
2021/07/04 16:28:32;;;;;;;4.20;3.30;;;768.10;1408.00;;;;;;4831128;29;20057;-82
2021/07/04 16:30:58;;;;;;;4.13;3.03;;;768.40;1433.60;;;;;;4836291;29;20056;-82
2021/07/04 16:33:23;;;;;;;4.35;3.53;;;743.20;1433.60;;;;;;4831686;29;20034;-79
2021/07/04 16:35:49;;;;;;;5.15;3.70;;;743.20;1459.20;;;;;;4830043;29;20072;-81
2021/07/04 16:38:15;;;;;;;7.53;3.28;;;743.10;1459.20;;;;;;4829709;29;20030;-82
2021/07/04 16:40:41;;;;;;;5.07;3.60;;;743.10;1459.20;;;;;;4830177;29;20033;-82
2021/07/04 16:43:07;;;;;;;6.18;4.13;;;743.10;1459.20;;;;;;4831389;29;20041;-81
2021/07/04 16:45:35;;;;;;;7.15;3.70;;;743.10;1510.40;;;;;;4830211;29;20037;-81
2021/07/04 16:48:01;;;;;;;6.85;4.10;;;743.00;1536.00;;;;;;4831508;29;20184;-81
2021/07/04 16:50:29;;;;;;;6.88;4.03;;;743.00;1561.60;;;;;;4832727;29;20034;-83
2021/07/04 16:52:56;;;;;;;6.15;3.53;;;742.90;1561.60;;;;;;4832037;29;20030;-83
2021/07/04 16:55:22;;;;;;;5.97;3.60;;;768.00;1484.80;;;;;;4834829;29;20026;-81
2021/07/04 16:57:49;;;;;;;4.65;3.50;;;742.90;1536.00;;;;;;4830320;29;20026;-82
2021/07/04 17:00:28;;;;;;;5.00;3.63;;;742.90;1561.60;;;;;;4831922;29;20018;-81
2021/07/04 17:02:57;;;;;;;5.72;3.70;;;742.80;1587.20;;;;;;4833651;29;20040;-79
2021/07/04 17:05:23;;;;;;;7.13;4.03;;;742.70;1561.60;;;;;;4830227;29;20129;-82
2021/07/04 17:07:49;;;;;;;16.45;5.93;;;742.60;1587.20;;;;;;4831092;29;20055;-81
2021/07/04 17:10:16;;;;;;;13.68;4.55;;;742.60;1638.40;;;;;;4846656;29;20018;-80
2021/07/04 17:12:43;;;;;;;7.95;4.35;;;742.50;1638.40;;;;;;4832688;29;20112;-79
2021/07/04 17:15:10;;;;;;;6.60;4.35;;;742.50;1638.40;;;;;;4820734;29;20038;-79
2021/07/04 17:17:36;;;;;;;7.43;4.00;;;742.40;1664.00;;;;;;4855627;29;20433;-77
2021/07/04 17:20:04;;;;;;;9.07;4.45;;;742.40;1638.40;;;;;;4834232;29;20082;-79
2021/07/04 17:22:30;;;;;;;5.15;4.13;;;717.70;1638.40;;;;;;4829489;29;20084;-82
2021/07/04 17:24:56;;;;;;;7.20;4.38;;;717.50;1638.40;;;;;;4830032;29;20467;-81
2021/07/04 17:27:21;;;;;;;9.55;4.07;;;717.50;1638.40;;;;;;4828986;29;20022;-81
2021/07/04 17:29:48;;;;;;;7.40;4.50;;;717.40;1664.00;;;;;;4829281;29;20062;-81
2021/07/04 17:32:15;;;;;;;8.65;4.63;;;717.30;1664.00;;;;;;4828938;29;20037;-81
2021/07/04 17:34:42;;;;;;;8.07;4.60;;;717.20;1664.00;;;;;;4828684;29;20106;-82
2021/07/04 17:37:08;;;;;;;7.30;4.40;;;717.20;1689.60;;;;;;4844583;29;20082;-81
2021/07/04 17:39:34;;;;;;;6.53;4.78;;;717.10;1715.20;;;;;;4828463;29;20074;-80
2021/07/04 17:42:00;;;;;;;6.65;4.20;;;717.00;1689.60;;;;;;4828511;29;20030;-80
2021/07/04 17:44:26;;;;;;;7.07;4.38;;;716.90;1715.20;;;;;;4828427;29;20034;-79
2021/07/04 17:46:52;;;;;;;9.85;5.05;;;716.90;1715.20;;;;;;4844780;29;20033;-82
2021/07/04 17:49:18;;;;;;;7.43;4.25;;;716.80;1715.20;;;;;;4828439;29;20053;-81
2021/07/04 17:51:44;;;;;;;8.77;4.97;;;716.80;1689.60;;;;;;4829180;29;20032;-80
2021/07/04 17:54:10;;;;;;;10.38;4.53;;;716.80;1715.20;;;;;;4830613;29;20022;-80
2021/07/04 17:56:39;;;;;;;7.85;4.68;;;692.00;1715.20;;;;;;4828217;29;20030;-81
2021/07/04 17:59:05;;;;;;;11.07;5.32;;;691.90;1715.20;;;;;;4844470;29;20026;-79
2021/07/04 18:01:31;;;;;;;10.48;4.50;;;691.80;1715.20;;;;;;4827933;29;20065;-79
2021/07/04 18:03:58;;;;;;;10.07;4.65;;;691.70;1740.80;;;;;;4828320;29;20132;-81
2021/07/04 18:06:24;;;;;;;8.93;4.32;;;691.50;1715.20;;;;;;4828279;29;20479;-79
2021/07/04 18:08:52;;;;;;;9.63;4.47;;;691.40;1766.40;;;;;;4827747;29;20032;-79
2021/07/04 18:11:19;;;;;;;7.85;4.75;;;691.40;1740.80;;;;;;4828006;29;20080;-80
2021/07/04 18:13:45;;;;;;;13.25;5.00;;;691.30;1740.80;;;;;;4844459;29;20061;-80
2021/07/04 18:16:12;;;;;;;11.52;4.95;;;691.30;1766.40;;;;;;4827756;29;20466;-78
2021/07/04 18:18:38;;;;;;;6.45;4.93;;;691.20;1766.40;;;;;;4844720;29;20029;-79
2021/07/04 18:21:04;;;;;;;11.30;5.00;;;691.20;1766.40;;;;;;4828198;29;20053;-79
2021/07/04 18:23:33;;;;;;;9.18;4.80;;;666.50;1766.40;;;;;;4827672;29;20057;-80
2021/07/04 18:26:00;;;;;;;10.15;5.30;;;666.50;1792.00;;;;;;4828129;29;20030;-79
2021/07/04 18:28:26;;;;;;;11.68;4.88;;;666.50;1792.00;;;;;;4844721;29;20355;-81
2021/07/04 18:30:53;;;;;;;7.60;4.68;;;666.30;1817.60;;;;;;4827597;29;20033;-79
2021/07/04 18:33:19;;;;;;;11.05;5.50;;;666.30;1817.60;;;;;;4844096;29;20032;-80
2021/07/04 18:35:45;;;;;;;8.95;5.80;;;665.60;1843.20;;;;;;4827494;29;20138;-79
2021/07/04 18:38:11;;;;;;;12.85;5.40;;;666.20;1843.20;;;;;;4827658;29;20474;-81
2021/07/04 18:40:37;;;;;;;10.40;5.20;;;666.00;1868.80;;;;;;4844071;29;20034;-81
2021/07/04 18:43:03;;;;;;;12.50;5.28;;;665.90;1868.80;;;;;;4843286;29;20038;-79
2021/07/04 18:45:30;;;;;;;15.68;6.55;;;665.90;1868.80;;;;;;4827875;29;20148;-82
2021/07/04 18:47:58;;;;;;;15.30;5.95;;;665.70;1868.80;;;;;;4828207;29;20082;-82
2021/07/04 18:50:24;;;;;;;12.65;5.50;;;665.60;1868.80;;;;;;4827588;29;20038;-82
2021/07/04 18:52:50;;;;;;;9.35;5.05;;;640.70;1868.80;;;;;;4828654;29;20034;-84
2021/07/04 18:55:17;;;;;;;9.20;4.75;;;640.80;1868.80;;;;;;4844331;29;20022;-83
2021/07/04 18:57:43;;;;;;;6.68;4.53;;;640.70;1894.40;;;;;;4827545;29;20029;-82
2021/07/04 19:00:12;;;;;;;10.15;5.07;;;640.60;1894.40;;;;;;4827804;29;20129;-81
2021/07/04 19:02:40;;;;;;;16.92;5.43;;;640.50;1894.40;;;;;;4827385;29;20025;-82
2021/07/04 19:05:08;;;;;;;25.90;6.22;;;640.50;1945.60;;;;;;4843684;29;20033;-82
2021/07/04 19:07:48;;;;;;;20.98;8.45;;;640.50;1920.00;;;;;;4827207;29;20116;-82
2021/07/04 19:10:23;;;;;;;12.95;5.93;;;640.30;1945.60;;;;;;4822764;29;20030;-82
2021/07/04 19:12:50;;;;;;;13.50;6.70;;;640.20;1971.20;;;;;;4826662;29;20050;-83
2021/07/04 19:15:18;;;;;;;9.57;6.05;;;640.20;1971.20;;;;;;4838341;29;20117;-82
2021/07/04 19:17:44;;;;;;;11.85;5.78;;;640.10;1971.20;;;;;;4826708;29;20026;-83
2021/07/04 19:20:14;;;;;;;9.75;5.47;;;615.30;1945.60;;;;;;4826895;29;20121;-80
2021/07/04 19:22:41;;;;;;;10.68;6.68;;;640.10;1971.20;;;;;;4826536;29;20033;-79
2021/07/04 19:25:11;;;;;;;9.88;6.38;;;640.10;1971.20;;;;;;4842648;29;20029;-80
2021/07/04 19:27:38;;;;;;;16.80;7.30;;;640.20;1996.80;;;;;;4826914;29;20048;-80
2021/07/04 19:30:06;;;;;;;12.88;6.15;;;615.30;1971.20;;;;;;4827093;29;20030;-80
2021/07/04 19:32:32;;;;;;;13.50;6.50;;;615.20;2022.40;;;;;;4826498;29;20038;-80
2021/07/04 19:34:58;;;;;;;9.68;5.88;;;615.30;2022.40;;;;;;4827004;29;20166;-80
2021/07/04 19:37:24;;;;;;;14.40;7.38;;;615.30;2022.40;;;;;;4826160;29;20093;-80
2021/07/04 19:39:50;;;;;;;10.63;6.50;;;615.20;2022.40;;;;;;4826342;29;20120;-81
2021/07/04 19:42:15;;;;;;;17.55;7.95;;;615.20;2048.00;;;;;;4826861;29;20030;-81
2021/07/04 19:44:44;;;;;;;14.25;8.27;;;615.10;2048.00;;;;;;4826798;29;20038;-81
2021/07/04 19:47:12;;;;;;;10.77;7.18;;;614.90;2048.00;;;;;;4826568;29;20026;-82
2021/07/04 19:49:38;;;;;;;11.13;7.25;;;614.90;2073.60;;;;;;4843464;29;20164;-79
2021/07/04 19:52:05;;;;;;;11.80;6.85;;;614.90;2073.60;;;;;;4842766;29;20030;-81
2021/07/04 19:54:32;;;;;;;18.08;7.72;;;614.80;2073.60;;;;;;4825643;29;20379;-80
2021/07/04 19:56:58;;;;;;;11.60;7.25;;;614.80;2099.20;;;;;;4826643;29;20352;-81
2021/07/04 19:59:24;;;;;;;8.90;7.53;;;614.80;2099.20;;;;;;4826511;29;20018;-81
2021/07/04 20:01:50;;;;;;;16.02;8.68;;;614.80;2099.20;;;;;;4829784;29;20162;-81
2021/07/04 20:04:17;;;;;;;17.88;7.30;;;614.70;2099.20;;;;;;4830372;29;20037;-82
2021/07/04 20:06:44;;;;;;;11.68;7.57;;;614.70;2099.20;;;;;;4830180;29;20030;-84
2021/07/04 20:09:13;;;;;;;13.27;7.55;;;614.80;2099.20;;;;;;4830492;29;20022;-82
2021/07/04 20:11:39;;;;;;;11.13;7.65;;;614.70;2124.80;;;;;;4846857;29;20017;-82
2021/07/04 20:14:06;;;;;;;10.10;7.38;;;614.80;2124.80;;;;;;4846616;29;20113;-83
2021/07/04 20:16:32;;;;;;;17.55;7.63;;;614.70;2124.80;;;;;;4830571;29;20061;-83
2021/07/04 20:18:59;;;;;;;11.63;7.25;;;614.80;2124.80;;;;;;4829948;29;20033;-83
2021/07/04 20:21:25;;;;;;;16.33;8.15;;;614.70;2150.40;;;;;;4829887;29;20033;-82
2021/07/04 20:23:52;;;;;;;15.07;8.10;;;615.00;2150.40;;;;;;4829899;29;20475;-82
2021/07/04 20:26:19;;;;;;;10.88;7.60;;;614.70;2150.40;;;;;;4829935;29;20029;-82
2021/07/04 20:28:46;;;;;;;15.30;8.90;;;614.60;2150.40;;;;;;4829605;29;20455;-82
2021/07/04 20:31:12;;;;;;;11.73;7.07;;;614.70;2176.00;;;;;;4829874;29;20022;-82
2021/07/04 20:33:38;;;;;;;13.52;7.40;;;589.60;2150.40;;;;;;4846498;29;20078;-83
2021/07/04 20:36:05;;;;;;;12.77;7.57;;;614.60;2176.00;;;;;;4829533;29;20113;-80
2021/07/04 20:38:30;;;;;;;10.80;7.53;;;614.60;2176.00;;;;;;4845944;29;20034;-81
2021/07/04 20:40:58;;;;;;;15.48;7.55;;;614.60;2201.60;;;;;;4829865;29;20053;-81
2021/07/04 20:43:25;;;;;;;13.63;6.88;;;614.60;2201.60;;;;;;4845726;29;20030;-83
2021/07/04 20:45:51;;;;;;;12.32;7.35;;;614.50;2201.60;;;;;;4846227;29;20030;-83
2021/07/04 20:48:17;;;;;;;12.35;8.98;;;614.40;2176.00;;;;;;4829194;29;20136;-82
2021/07/04 20:50:43;;;;;;;10.40;6.82;;;589.70;2227.20;;;;;;4845760;29;20037;-79
2021/07/04 20:53:09;;;;;;;17.23;6.82;;;614.40;2227.20;;;;;;4829409;29;20033;-80
2021/07/04 20:55:38;;;;;;;12.60;6.80;;;614.50;2227.20;;;;;;4846849;29;20058;-81
2021/07/04 20:58:10;;;;;;;9.13;6.35;;;614.40;2227.20;;;;;;4829622;29;20030;-79
2021/07/04 21:00:37;;;;;;;12.18;6.78;;;589.70;2227.20;;;;;;4846127;29;20026;-80
2021/07/04 21:03:04;;;;;;;15.57;7.88;;;589.70;2252.80;;;;;;4828908;29;20034;-80
2021/07/04 21:05:31;;;;;;;13.00;7.13;;;614.40;2227.20;;;;;;4829515;29;20034;-81
2021/07/04 21:07:58;;;;;;;12.23;7.70;;;614.50;2227.20;;;;;;4845686;29;20069;-81
2021/07/04 21:10:24;;;;;;;10.60;7.43;;;614.90;2252.80;;;;;;4828947;29;20497;-80
2021/07/04 21:12:52;;;;;;;12.13;7.93;;;589.70;2278.40;;;;;;4828405;29;20030;-79
2021/07/04 21:15:17;;;;;;;13.20;7.82;;;589.70;2278.40;;;;;;4828933;29;20034;-81
2021/07/04 21:17:44;;;;;;;17.27;7.97;;;589.70;2278.40;;;;;;4828794;29;20037;-80
2021/07/04 21:20:15;;;;;;;10.60;6.93;;;589.50;2278.40;;;;;;4845196;29;20407;-80
2021/07/04 21:22:43;;;;;;;11.80;6.75;;;589.40;2304.00;;;;;;4828955;29;20028;-79
2021/07/04 21:25:10;;;;;;;11.85;6.40;;;589.50;2304.00;;;;;;4828721;29;20475;-80
2021/07/04 21:27:36;;;;;;;15.57;6.88;;;589.60;2304.00;;;;;;4831015;29;20375;-78
2021/07/04 21:30:05;;;;;;;17.38;8.25;;;589.70;2278.40;;;;;;4831004;29;20026;-79
2021/07/04 21:32:30;;;;;;;15.30;8.05;;;589.50;2278.40;;;;;;4829713;29;20117;-82
2021/07/04 21:34:57;;;;;;;19.40;11.43;;;589.50;2304.00;;;;;;4831923;29;20053;-83
2021/07/04 21:37:26;;;;;;;10.52;7.07;;;589.50;2304.00;;;;;;4830693;29;20538;-82
2021/07/04 21:39:51;;;;;;;12.10;7.00;;;589.40;2329.60;;;;;;4832312;29;20068;-83
2021/07/04 21:42:17;;;;;;;12.80;7.05;;;589.30;2355.20;;;;;;4842040;29;20030;-82
2021/07/04 21:44:43;;;;;;;13.40;6.88;;;589.00;2406.40;;;;;;4842278;29;20069;-83
2021/07/04 21:47:10;;;;;;;14.50;7.18;;;589.10;2406.40;;;;;;4830159;29;20041;-82
2021/07/04 21:49:36;;;;;;;11.30;6.35;;;589.20;2406.40;;;;;;4833178;29;20431;-82
2021/07/04 21:52:04;;;;;;;12.00;6.38;;;589.20;2432.00;;;;;;4845671;29;20052;-82
2021/07/04 21:54:30;;;;;;;11.73;6.80;;;589.20;2406.40;;;;;;4846391;29;20030;-83
2021/07/04 21:56:56;;;;;;;12.00;6.78;;;589.20;2406.40;;;;;;4845887;29;20101;-82
2021/07/04 21:59:22;;;;;;;10.30;6.43;;;589.00;2432.00;;;;;;4862650;29;20041;-82
2021/07/04 22:01:48;;;;;;;12.07;6.93;;;564.00;2432.00;;;;;;4838916;29;20025;-83
2021/07/04 22:04:14;;;;;;;9.77;6.55;;;588.80;2432.00;;;;;;4827508;29;20073;-83
2021/07/04 22:06:40;;;;;;;10.02;6.32;;;588.90;2432.00;;;;;;4827920;29;20037;-83
2021/07/04 22:09:06;;;;;;;12.60;5.85;;;588.80;2432.00;;;;;;4828061;29;20098;-82
2021/07/04 22:11:54;;;;;;;12.63;6.88;;;588.90;2432.00;;;;;;4844131;29;20022;-86
2021/07/04 22:14:20;;;;;;;12.32;5.80;;;564.00;2432.00;;;;;;4829005;29;20058;-83
2021/07/04 22:16:46;;;;;;;12.88;7.32;;;589.00;2406.40;;;;;;4828771;29;20030;-85
2021/07/04 22:19:17;;;;;;;15.32;8.68;;;589.00;2406.40;;;;;;4828958;29;20041;-84
2021/07/04 22:21:44;;;;;;;18.33;8.70;;;588.90;2432.00;;;;;;4828620;29;20074;-84
2021/07/04 22:24:57;;;;;;;19.00;10.77;;;588.90;2432.00;;;;;;4828726;29;20025;-85
2021/07/04 22:27:48;;;;;;;19.17;9.75;;;589.00;2406.40;;;;;;4813790;29;20030;-85
2021/07/04 22:30:15;;;;;;;13.23;7.85;;;588.90;2406.40;;;;;;4827981;29;20026;-85
2021/07/04 22:36:06;;;;;;;10.70;7.00;;;589.00;2406.40;;;;;;4844866;29;20093;-82
2021/07/04 22:38:32;;;;;;;13.88;6.70;;;589.00;2406.40;;;;;;4828374;29;20071;-83
2021/07/04 22:40:59;;;;;;;13.88;8.02;;;589.10;2406.40;;;;;;4828365;29;20053;-85
2021/07/04 22:43:30;;;;;;;13.75;8.02;;;589.00;2406.40;;;;;;4827944;29;20364;-83
2021/07/04 22:46:02;;;;;;;9.10;6.75;;;589.10;2406.40;;;;;;4828328;29;20022;-84
2021/07/04 22:48:28;;;;;;;8.48;6.35;;;589.20;2380.80;;;;;;4827625;29;20069;-84
2021/07/04 22:50:54;;;;;;;16.15;7.18;;;589.20;2380.80;;;;;;4828365;29;20025;-84
2021/07/04 22:53:22;;;;;;;11.20;7.05;;;563.90;2380.80;;;;;;4827951;29;20025;-84
2021/07/04 22:55:50;;;;;;;10.57;7.43;;;589.20;2380.80;;;;;;4827959;29;20026;-83
2021/07/04 22:58:16;;;;;;;8.25;5.95;;;589.20;2380.80;;;;;;4827643;29;20463;-84
2021/07/04 23:01:03;;;;;;;9.30;6.35;;;589.20;2380.80;;;;;;4830450;29;20036;-87
2021/07/04 23:03:29;;;;;;;15.73;7.90;;;589.20;2406.40;;;;;;4828749;29;20036;-85
2021/07/04 23:05:56;;;;;;;12.00;6.90;;;589.20;2432.00;;;;;;4828213;29;20023;-83
2021/07/04 23:08:22;;;;;;;10.70;5.97;;;589.10;2432.00;;;;;;4827861;29;20025;-82
2021/07/04 23:10:48;;;;;;;8.80;5.90;;;589.10;2432.00;;;;;;4827857;29;20022;-84
2021/07/04 23:13:14;;;;;;;10.05;5.30;;;589.20;2432.00;;;;;;4827878;29;20022;-84
2021/07/04 23:15:41;;;;;;;7.80;5.75;;;589.00;2432.00;;;;;;4827716;29;20030;-83
2021/07/04 23:18:08;;;;;;;8.98;5.47;;;589.30;2432.00;;;;;;4827555;29;20537;-84
2021/07/04 23:20:34;;;;;;;8.93;4.97;;;589.10;2432.00;;;;;;4827902;29;20022;-84
2021/07/04 23:23:00;;;;;;;12.05;6.93;;;589.00;2406.40;;;;;;4827509;29;20110;-84
2021/07/04 23:25:27;;;;;;;12.07;7.75;;;588.90;2432.00;;;;;;4828128;29;20455;-85
2021/07/04 23:27:54;;;;;;;10.75;6.95;;;588.90;2432.00;;;;;;4827594;29;20081;-84
2021/07/04 23:30:23;;;;;;;11.88;6.68;;;564.10;2432.00;;;;;;4827540;29;20030;-85
2021/07/04 23:32:50;;;;;;;13.70;7.05;;;564.00;2432.00;;;;;;4827640;29;20049;-85
2021/07/04 23:35:16;;;;;;;12.35;7.10;;;563.70;2432.00;;;;;;4826970;29;20053;-85
2021/07/04 23:37:43;;;;;;;13.23;6.55;;;563.80;2432.00;;;;;;4827589;29;20372;-84
2021/07/04 23:40:11;;;;;;;11.10;6.57;;;563.90;2432.00;;;;;;4827638;29;20037;-84
2021/07/04 23:42:40;;;;;;;11.13;6.53;;;564.00;2432.00;;;;;;4827719;29;20509;-84
2021/07/04 23:45:07;;;;;;;11.98;7.70;;;564.10;2432.00;;;;;;4828048;29;20030;-84
2021/07/04 23:47:34;;;;;;;10.65;6.95;;;564.10;2432.00;;;;;;4827005;29;20022;-82
2021/07/04 23:50:00;;;;;;;13.35;6.38;;;563.90;2432.00;;;;;;4827666;29;20109;-82
2021/07/04 23:52:26;;;;;;;14.27;6.70;;;564.10;2432.00;;;;;;4827307;29;20038;-84
2021/07/04 23:54:52;;;;;;;9.35;6.57;;;564.10;2432.00;;;;;;4827430;29;20038;-83
2021/07/04 23:57:17;;;;;;;9.90;6.13;;;564.10;2432.00;;;;;;4827013;29;20030;-83
2021/07/04 23:59:45;;;;;;;11.57;6.95;;;588.80;2432.00;;;;;;4827274;29;20356;-83
